Hartford, Connecticut
Traffic Map
Current Weather Conditions
Hartford, Connecticut
Overcast Light Rain
Overcast

Feels Like: 3°
Wind Chill: Ceiling: 7000
Heat Index: Visibility: 4mi
Dew Point: Wind: 0mph
Humidity: 93% Direction: ° ()
Pressure: 29.72in Gusts: 0mph
Raw Report DataKHFD 191153Z 00000KT 4SM -RA BR BKN070 OVC085 03/02 A2972 RMK AO2 SLP062 P0008 60016 70016 T00330022 10056 20033 50000
Traffic Incident Summary
Active as of:
Severity:
Category:
InformationThere was an issue retrieving the traffic information for this location. Please try a different location or try again shortly.
Advertisements